Time;durP1;ratioP1;P1;durP2;ratioP2;P2;SDS_P1;SDS_P2;PMS_P1;PMS_P2;Temp;Humidity;BMP_temperature;BMP_pressure;BME280_temperature;BME280_humidity;BME280_pressure;Samples;Min_cycle;Max_cycle;Signal;HPM_P1;HPM_P2
2022/03/02 00:01:48;;;;;;;172.45;40.28;;;;;;;3.24;84.32;101874.97;5063177;28;20032;-79
2022/03/02 00:04:14;;;;;;;146.30;37.13;;;;;;;3.26;84.55;101861.38;5062960;28;20025;-79
2022/03/02 00:06:39;;;;;;;158.07;38.97;;;;;;;3.28;84.24;101866.59;5063177;28;20078;-80
2022/03/02 00:09:05;;;;;;;131.57;36.15;;;;;;;3.28;84.47;101861.47;5063016;28;20021;-79
2022/03/02 00:11:30;;;;;;;161.30;36.08;;;;;;;3.27;84.50;101869.97;5044888;28;20028;-79
2022/03/02 00:13:56;;;;;;;147.13;37.15;;;;;;;3.24;84.66;101869.84;5063079;28;20479;-80
2022/03/02 00:16:23;;;;;;;136.43;36.08;;;;;;;3.25;84.73;101876.72;5062892;28;20025;-80
2022/03/02 00:18:49;;;;;;;123.45;36.10;;;;;;;3.23;84.81;101874.09;5062842;28;20028;-80
2022/03/02 00:21:15;;;;;;;132.13;32.95;;;;;;;3.28;84.65;101874.28;5062995;28;20024;-81
2022/03/02 00:23:40;;;;;;;104.15;27.35;;;;;;;3.28;84.48;101857.22;5062658;28;20032;-79
2022/03/02 00:26:06;;;;;;;108.10;29.33;;;;;;;3.28;84.34;101851.19;5062378;28;20025;-80
2022/03/02 00:28:31;;;;;;;128.38;32.72;;;;;;;3.28;84.10;101851.19;5062836;28;20028;-80
2022/03/02 00:30:56;;;;;;;151.02;32.38;;;;;;;3.20;83.83;101849.16;5062877;28;20361;-79
2022/03/02 00:33:22;;;;;;;160.05;36.67;;;;;;;3.20;83.65;101851.75;5062765;28;20025;-79
2022/03/02 00:35:47;;;;;;;154.70;36.33;;;;;;;3.11;84.01;101843.63;5044772;28;20028;-79
2022/03/02 00:38:13;;;;;;;146.18;36.60;;;;;;;3.09;84.15;101850.38;5062751;28;20384;-79
2022/03/02 00:40:40;;;;;;;154.13;36.42;;;;;;;3.02;84.19;101830.38;5062892;28;20025;-80
2022/03/02 00:43:06;;;;;;;135.30;32.45;;;;;;;3.04;84.12;101827.06;5062422;28;20041;-81
2022/03/02 00:45:32;;;;;;;99.50;24.70;;;;;;;2.99;84.23;101820.84;5062717;28;20029;-79
2022/03/02 00:47:59;;;;;;;141.13;31.23;;;;;;;2.99;84.41;101832.81;5063076;28;20135;-81
2022/03/02 00:50:24;;;;;;;121.38;28.65;;;;;;;2.97;84.46;101825.91;5065247;28;20021;-80
2022/03/02 00:52:50;;;;;;;111.57;28.05;;;;;;;2.90;84.42;101812.72;5069455;28;20063;-80
2022/03/02 00:55:15;;;;;;;107.00;27.73;;;;;;;2.92;84.47;101814.56;5052815;28;20033;-83
2022/03/02 00:57:41;;;;;;;102.65;27.05;;;;;;;2.87;84.43;101804.88;5063020;28;20025;-80
2022/03/02 01:00:07;;;;;;;111.90;29.55;;;;;;;2.84;84.47;101813.31;5062671;28;20033;-81
2022/03/02 01:02:33;;;;;;;109.28;27.90;;;;;;;2.80;84.45;101811.41;5062518;28;20029;-82
2022/03/02 01:04:58;;;;;;;113.38;26.75;;;;;;;2.75;84.60;101811.19;5044679;28;20039;-81
2022/03/02 01:07:24;;;;;;;132.85;28.45;;;;;;;2.67;84.56;101794.59;5062491;28;20021;-80
2022/03/02 01:09:49;;;;;;;125.68;30.33;;;;;;;2.58;84.54;101787.34;5062394;28;20417;-79
2022/03/02 01:12:15;;;;;;;153.80;28.27;;;;;;;2.59;84.54;101791.66;5062181;28;20116;-79
2022/03/02 01:14:40;;;;;;;370.13;45.70;;;;;;;2.56;84.48;101782.13;5062571;28;20501;-80
2022/03/02 01:17:06;;;;;;;209.98;32.88;;;;;;;2.51;84.57;101782.75;5062572;28;20033;-79
2022/03/02 01:19:31;;;;;;;258.38;34.30;;;;;;;2.50;84.98;101789.53;5062353;28;20052;-80
2022/03/02 01:21:56;;;;;;;298.67;42.08;;;;;;;2.48;84.96;101786.91;5062269;28;20025;-80
2022/03/02 01:24:22;;;;;;;287.13;34.35;;;;;;;2.45;85.10;101786.75;5062401;28;20149;-80
2022/03/02 01:26:47;;;;;;;189.25;31.42;;;;;;;2.44;85.33;101790.13;5044066;28;20025;-78
2022/03/02 01:29:13;;;;;;;181.05;28.38;;;;;;;2.43;85.35;101778.09;5062733;28;20025;-78
2022/03/02 01:31:39;;;;;;;512.33;57.08;;;;;;;2.50;85.08;101786.97;5062255;28;20049;-79
2022/03/02 01:34:04;;;;;;;473.33;53.90;;;;;;;2.53;85.17;101801.63;5061984;28;20029;-80
2022/03/02 01:36:29;;;;;;;347.40;42.53;;;;;;;2.53;85.24;101794.81;5063397;28;20381;-77
2022/03/02 01:38:55;;;;;;;561.42;56.33;;;;;;;2.56;85.00;101787.25;5065628;28;20032;-78
2022/03/02 01:41:24;;;;;;;422.85;50.25;;;;;;;2.48;85.15;101771.53;5065595;28;20063;-76
2022/03/02 01:43:52;;;;;;;461.80;50.55;;;;;;;2.50;85.19;101773.28;5065518;28;20044;-76
2022/03/02 01:46:18;;;;;;;624.05;68.00;;;;;;;2.50;85.13;101773.28;5065511;28;20033;-77
2022/03/02 01:48:44;;;;;;;535.90;48.47;;;;;;;2.42;85.29;101760.97;5065556;28;20029;-76
2022/03/02 01:51:09;;;;;;;431.15;44.47;;;;;;;2.46;85.38;101777.41;5065476;28;20025;-77
2022/03/02 01:53:35;;;;;;;432.65;44.47;;;;;;;2.47;85.26;101767.22;5065249;28;20090;-77
2022/03/02 01:56:01;;;;;;;573.55;64.43;;;;;;;2.44;85.09;101767.06;5065302;28;20059;-77
2022/03/02 01:58:28;;;;;;;576.05;61.92;;;;;;;2.49;84.91;101769.84;5065161;28;20032;-77
2022/03/02 02:00:53;;;;;;;646.10;62.65;;;;;;;2.47;85.02;101762.09;5065365;28;20108;-77
2022/03/02 02:03:19;;;;;;;581.50;60.10;;;;;;;2.44;85.24;101751.69;5064894;28;20021;-76
2022/03/02 02:05:45;;;;;;;468.40;49.28;;;;;;;2.42;85.28;101753.28;5065124;28;20037;-79
2022/03/02 02:08:10;;;;;;;424.98;41.03;;;;;;;2.40;85.28;101751.44;5047071;28;20021;-78
2022/03/02 02:10:37;;;;;;;333.60;36.30;;;;;;;2.32;85.67;101753.66;5064995;28;20059;-78
2022/03/02 02:13:03;;;;;;;461.45;43.72;;;;;;;2.32;85.56;101749.41;5064767;28;20032;-79
2022/03/02 02:15:29;;;;;;;405.73;40.72;;;;;;;2.27;85.78;101747.44;5064896;28;20047;-79
2022/03/02 02:17:55;;;;;;;167.45;21.70;;;;;;;2.28;85.86;101747.53;5047083;28;20036;-79
2022/03/02 02:20:23;;;;;;;317.08;32.00;;;;;;;2.26;86.02;101758.47;5064869;28;20021;-79
2022/03/02 02:22:48;;;;;;;295.05;34.47;;;;;;;2.29;85.84;101751.84;5064937;28;20013;-78
2022/03/02 02:25:15;;;;;;;347.08;33.90;;;;;;;2.36;85.71;101747.88;5064705;28;20400;-78
2022/03/02 02:27:44;;;;;;;408.55;40.92;;;;;;;2.32;85.75;101753.66;5064763;28;20039;-78
2022/03/02 02:30:11;;;;;;;198.90;23.60;;;;;;;2.31;85.88;101757.91;5064755;28;20025;-76
2022/03/02 02:32:37;;;;;;;315.30;30.88;;;;;;;2.31;85.99;101760.47;5046786;28;20021;-77
2022/03/02 02:35:04;;;;;;;271.25;26.67;;;;;;;2.29;86.05;101750.94;5064505;28;20445;-77
2022/03/02 02:37:32;;;;;;;343.50;31.95;;;;;;;2.31;86.01;101754.47;5064322;28;20109;-77
2022/03/02 02:40:01;;;;;;;324.15;30.55;;;;;;;2.25;85.95;101754.19;5064647;28;20033;-77
2022/03/02 02:42:27;;;;;;;169.60;20.20;;;;;;;2.31;85.87;101774.97;5064089;28;20068;-76
2022/03/02 02:44:54;;;;;;;283.30;27.05;;;;;;;2.30;85.70;101758.69;5064215;28;20036;-77
2022/03/02 02:47:21;;;;;;;274.02;24.98;;;;;;;2.27;85.83;101765.38;5063727;28;20025;-77
2022/03/02 02:49:46;;;;;;;377.05;35.83;;;;;;;2.34;85.98;101780.25;5064215;28;20029;-76
2022/03/02 02:52:12;;;;;;;397.08;36.65;;;;;;;2.34;85.86;101770.00;5064314;28;20020;-77
2022/03/02 02:54:37;;;;;;;386.60;32.67;;;;;;;2.39;85.68;101772.75;5046193;28;20032;-76
2022/03/02 02:57:04;;;;;;;245.02;27.67;;;;;;;2.39;85.34;101753.16;5063965;28;20036;-76
2022/03/02 02:59:30;;;;;;;303.80;29.15;;;;;;;2.40;85.05;101754.91;5063966;28;20052;-75
2022/03/02 03:01:55;;;;;;;345.65;40.22;;;;;;;2.36;85.12;101755.56;5064239;28;20075;-75
2022/03/02 03:04:21;;;;;;;381.25;34.78;;;;;;;2.30;85.41;101753.56;5064166;28;20037;-75
2022/03/02 03:06:46;;;;;;;470.70;40.25;;;;;;;2.31;85.21;101744.22;5064110;28;20033;-75
2022/03/02 03:09:12;;;;;;;365.55;31.40;;;;;;;2.20;85.38;101736.91;5064011;28;20040;-73
2022/03/02 03:11:39;;;;;;;127.30;14.05;;;;;;;2.22;85.51;101735.28;5063679;28;20024;-73
2022/03/02 03:14:12;;;;;;;235.75;24.98;;;;;;;2.21;85.37;101737.75;5063420;28;20044;-73
2022/03/02 03:16:39;;;;;;;280.50;25.00;;;;;;;2.19;85.23;101730.00;5063496;28;20477;-73
2022/03/02 03:19:05;;;;;;;236.15;23.05;;;;;;;2.18;85.12;101730.81;5045266;28;20121;-72
2022/03/02 03:21:30;;;;;;;180.65;15.43;;;;;;;2.06;85.23;101731.09;5063357;28;20036;-73
2022/03/02 03:23:56;;;;;;;419.23;32.35;;;;;;;2.03;85.31;101727.53;5063262;28;20025;-74
2022/03/02 03:26:21;;;;;;;293.65;24.65;;;;;;;1.92;85.33;101725.31;5063175;28;20025;-74
2022/03/02 03:28:47;;;;;;;241.18;21.35;;;;;;;1.83;86.03;101730.00;5063059;28;20024;-74
2022/03/02 03:31:12;;;;;;;263.95;19.45;;;;;;;1.82;85.90;101735.94;5063091;28;20024;-74
2022/03/02 03:33:37;;;;;;;251.73;24.70;;;;;;;1.77;86.26;101739.94;5063039;28;20020;-75
2022/03/02 03:36:03;;;;;;;258.92;22.73;;;;;;;1.80;86.31;101745.22;5062986;28;20460;-75
2022/03/02 03:38:29;;;;;;;362.33;36.22;;;;;;;1.79;86.13;101748.59;5063146;28;20032;-74
2022/03/02 03:40:54;;;;;;;315.67;26.50;;;;;;;1.75;86.31;101747.53;5063160;28;20450;-74
2022/03/02 03:43:20;;;;;;;306.83;27.20;;;;;;;1.68;86.28;101733.53;5062818;28;20041;-74
2022/03/02 03:45:45;;;;;;;339.08;27.40;;;;;;;1.69;86.17;101748.09;5062858;28;20043;-74
2022/03/02 03:48:11;;;;;;;370.60;34.80;;;;;;;1.68;86.24;101743.78;5063078;28;20035;-73
2022/03/02 03:50:36;;;;;;;274.75;24.90;;;;;;;1.68;86.17;101745.47;5063084;28;20539;-73
2022/03/02 03:53:01;;;;;;;351.23;32.40;;;;;;;1.66;86.19;101741.97;5044793;28;20017;-73
2022/03/02 03:55:27;;;;;;;218.43;22.90;;;;;;;1.67;86.07;101738.59;5062831;28;20025;-73
2022/03/02 03:57:52;;;;;;;397.75;30.63;;;;;;;1.66;85.93;101735.16;5062632;28;20089;-73
2022/03/02 04:00:19;;;;;;;319.15;24.65;;;;;;;1.62;86.08;101730.69;5062578;28;20466;-73
2022/03/02 04:02:45;;;;;;;177.57;17.17;;;;;;;1.48;86.19;101705.28;5062470;28;20045;-72
2022/03/02 04:05:11;;;;;;;298.90;25.52;;;;;;;1.56;85.96;101726.16;5062815;28;20568;-72
2022/03/02 04:07:36;;;;;;;159.20;14.00;;;;;;;1.45;85.79;101717.06;5044913;28;20021;-72
2022/03/02 04:10:04;;;;;;;130.57;12.73;;;;;;;1.38;85.64;101709.84;5062697;28;20053;-72
2022/03/02 04:12:29;;;;;;;163.05;13.55;;;;;;;1.26;85.76;101716.13;5062817;28;20039;-72
2022/03/02 04:14:56;;;;;;;141.80;12.15;;;;;;;1.17;86.03;101725.84;5062827;28;20028;-72
2022/03/02 04:17:22;;;;;;;127.10;10.35;;;;;;;1.08;86.06;101726.28;5062736;28;20021;-72
2022/03/02 04:19:48;;;;;;;147.02;14.15;;;;;;;1.05;86.05;101726.13;5062528;28;20480;-73
2022/03/02 04:22:13;;;;;;;174.13;13.80;;;;;;;1.06;85.80;101722.75;5062387;28;20021;-73
2022/03/02 04:24:39;;;;;;;100.95;10.02;;;;;;;0.96;85.63;101704.38;5062468;28;20056;-73
2022/03/02 04:27:05;;;;;;;128.57;13.13;;;;;;;0.98;85.55;101712.13;5062238;28;20040;-73
2022/03/02 04:29:31;;;;;;;109.22;10.82;;;;;;;0.98;85.51;101719.78;5062592;28;20024;-73
2022/03/02 04:31:56;;;;;;;72.00;9.32;;;;;;;0.82;85.30;101692.53;5062462;28;20142;-72
2022/03/02 04:34:21;;;;;;;47.13;7.63;;;;;;;0.89;85.10;101703.97;5062405;28;20021;-73
2022/03/02 04:36:47;;;;;;;65.30;8.55;;;;;;;0.81;85.13;101688.22;5062276;28;20107;-73
2022/03/02 04:39:12;;;;;;;66.78;7.07;;;;;;;0.73;84.96;101685.28;5062456;28;20428;-72
2022/03/02 04:41:38;;;;;;;99.85;9.60;;;;;;;0.74;85.28;101713.47;5062098;28;20029;-72
2022/03/02 04:44:04;;;;;;;48.35;5.75;;;;;;;0.48;85.41;101661.84;5062289;28;20159;-71
2022/03/02 04:46:29;;;;;;;142.82;11.43;;;;;;;0.67;85.65;101675.59;5062408;28;20021;-70
2022/03/02 04:48:54;;;;;;;188.48;13.82;;;;;;;0.50;85.89;101651.69;5062341;28;20052;-70
2022/03/02 04:51:20;;;;;;;54.47;5.22;;;;;;;0.58;86.02;101667.44;5062463;28;20040;-71
2022/03/02 04:53:45;;;;;;;398.90;27.02;;;;;;;0.48;86.59;101661.84;5062351;28;20120;-70
2022/03/02 04:56:10;;;;;;;76.40;8.02;;;;;;;0.52;86.90;101662.00;5062343;28;20021;-70
2022/03/02 04:58:36;;;;;;;313.45;23.08;;;;;;;0.60;87.04;101682.06;5062101;28;20089;-70
2022/03/02 05:01:03;;;;;;;277.38;22.55;;;;;;;0.60;87.14;101674.41;5062408;28;20368;-69
2022/03/02 05:03:28;;;;;;;121.32;9.45;;;;;;;0.60;87.38;101665.84;5062159;28;20052;-70
2022/03/02 05:05:53;;;;;;;361.45;26.83;;;;;;;0.68;87.66;101669.69;5062114;28;20029;-70
2022/03/02 05:08:19;;;;;;;411.00;32.55;;;;;;;0.72;87.56;101674.16;5062073;28;20051;-69
2022/03/02 05:10:44;;;;;;;372.33;31.45;;;;;;;0.52;87.32;101633.88;5062584;28;20032;-70
2022/03/02 05:13:10;;;;;;;292.13;25.10;;;;;;;0.70;87.52;101668.06;5065739;28;20076;-69
2022/03/02 05:15:36;;;;;;;312.63;25.63;;;;;;;0.67;87.43;101675.59;5047883;28;20063;-72
2022/03/02 05:18:02;;;;;;;327.33;27.42;;;;;;;0.77;87.68;101688.88;5066174;28;20021;-70
2022/03/02 05:20:27;;;;;;;362.38;25.33;;;;;;;0.71;87.45;101667.31;5065806;28;20033;-71
2022/03/02 05:22:53;;;;;;;154.82;12.30;;;;;;;0.70;87.13;101657.84;5065819;28;20032;-70
2022/03/02 05:25:19;;;;;;;235.35;18.55;;;;;;;0.81;87.20;101681.44;5065692;28;20025;-72
2022/03/02 05:27:45;;;;;;;163.63;14.95;;;;;;;0.83;87.16;101700.28;5047312;28;20065;-72
2022/03/02 05:30:12;;;;;;;300.55;21.73;;;;;;;0.82;87.30;101695.97;5065802;28;20051;-72
2022/03/02 05:32:38;;;;;;;219.93;17.98;;;;;;;0.84;87.32;101704.63;5065767;28;20032;-72
2022/03/02 05:35:04;;;;;;;87.63;9.40;;;;;;;0.89;87.26;101704.84;5065686;28;20025;-71
2022/03/02 05:37:29;;;;;;;368.38;28.35;;;;;;;0.78;87.01;101673.63;5065418;28;20049;-71
2022/03/02 05:39:55;;;;;;;189.38;18.08;;;;;;;0.99;86.89;101693.44;5065543;28;20028;-71
2022/03/02 05:42:20;;;;;;;95.75;10.05;;;;;;;0.92;86.88;101689.69;5065470;28;20032;-72
2022/03/02 05:44:46;;;;;;;292.88;20.52;;;;;;;0.85;86.90;101678.25;5065229;28;20033;-72
2022/03/02 05:47:12;;;;;;;215.38;17.50;;;;;;;0.83;87.04;101681.53;5065232;28;20469;-73
2022/03/02 05:49:38;;;;;;;284.80;27.40;;;;;;;0.79;87.20;101694.94;5065376;28;20059;-74
2022/03/02 05:52:04;;;;;;;284.70;22.65;;;;;;;0.89;87.29;101698.84;5065576;28;20021;-73
2022/03/02 05:54:30;;;;;;;174.80;17.20;;;;;;;0.81;87.18;101680.56;5064674;28;20093;-75
2022/03/02 05:56:55;;;;;;;157.00;16.30;;;;;;;0.97;86.98;101706.16;5046970;28;20591;-73
2022/03/02 05:59:20;;;;;;;58.72;10.52;;;;;;;0.94;86.71;101702.53;5065122;28;20013;-73
2022/03/02 06:01:46;;;;;;;142.80;14.00;;;;;;;0.76;86.66;101682.00;5065148;28;20043;-73
2022/03/02 06:04:12;;;;;;;362.80;28.50;;;;;;;0.68;87.06;101681.59;5047165;28;20049;-73
2022/03/02 06:06:38;;;;;;;151.05;13.43;;;;;;;0.74;87.23;101695.56;5065167;28;20589;-73
2022/03/02 06:09:06;;;;;;;281.92;20.85;;;;;;;0.74;87.10;101695.56;5064982;28;20044;-72
2022/03/02 06:11:33;;;;;;;180.88;16.27;;;;;;;0.79;87.13;101713.72;5065090;28;20461;-73
2022/03/02 06:13:59;;;;;;;161.25;14.73;;;;;;;0.74;87.26;101720.25;5065011;28;20043;-73
2022/03/02 06:16:25;;;;;;;206.85;16.23;;;;;;;0.68;87.24;101694.38;5065020;28;20081;-72
2022/03/02 06:18:51;;;;;;;183.68;15.57;;;;;;;0.81;87.19;101721.47;5065041;28;20025;-72
2022/03/02 06:21:22;;;;;;;124.50;11.15;;;;;;;0.62;87.06;101702.59;5064824;28;20021;-73
2022/03/02 06:23:47;;;;;;;218.05;15.50;;;;;;;0.70;87.49;101695.34;5063305;28;20404;-74
2022/03/02 06:26:13;;;;;;;201.75;16.45;;;;;;;0.70;87.65;101696.19;5046885;28;20021;-74
2022/03/02 06:28:38;;;;;;;236.48;21.50;;;;;;;0.70;87.92;101691.09;5046547;28;20021;-74
2022/03/02 06:31:04;;;;;;;141.77;13.80;;;;;;;0.99;88.19;101716.47;5064579;28;20112;-75
2022/03/02 06:33:29;;;;;;;200.00;15.55;;;;;;;0.94;87.90;101690.63;5046717;28;20017;-74
2022/03/02 06:35:55;;;;;;;131.70;10.70;;;;;;;1.15;88.05;101718.09;5064231;28;20094;-74
2022/03/02 06:38:22;;;;;;;188.30;15.20;;;;;;;1.23;88.12;101721.94;5064801;28;20024;-74
2022/03/02 06:41:11;;;;;;;142.13;12.35;;;;;;;1.30;88.03;101712.91;5064604;28;20036;-72
2022/03/02 06:43:56;;;;;;;87.43;9.38;;;;;;;1.31;87.91;101693.31;5064194;28;20027;-73
2022/03/02 06:46:54;;;;;;;99.72;9.50;;;;;;;1.52;88.01;101718.25;5064682;28;20048;-73
2022/03/02 06:49:38;;;;;;;68.70;8.55;;;;;;;1.54;87.94;101712.38;5064422;28;20053;-73
2022/03/02 06:52:04;;;;;;;36.65;6.18;;;;;;;1.61;88.03;101713.56;5046141;28;20039;-72
2022/03/02 06:54:32;;;;;;;59.70;8.48;;;;;;;1.68;88.08;101705.38;5064185;28;20028;-73
2022/03/02 06:57:00;;;;;;;53.95;7.45;;;;;;;1.83;88.23;101712.06;5064034;28;20047;-71
2022/03/02 06:59:40;;;;;;;65.15;6.63;;;;;;;1.91;88.21;101708.19;5064487;28;20058;-71
2022/03/02 07:02:07;;;;;;;50.35;7.50;;;;;;;2.06;88.27;101705.47;5064292;28;20078;-72
2022/03/02 07:04:38;;;;;;;60.35;7.28;;;;;;;2.25;88.40;101708.03;5064103;28;20032;-70
2022/03/02 07:07:04;;;;;;;59.42;6.60;;;;;;;2.35;88.10;101690.59;5064315;28;20108;-71
2022/03/02 07:09:32;;;;;;;64.65;7.82;;;;;;;2.34;87.77;101704.25;5064377;28;20049;-71
2022/03/02 07:12:02;;;;;;;51.30;8.20;;;;;;;2.29;88.00;101697.13;5063742;28;20021;-71
2022/03/02 07:14:30;;;;;;;39.42;6.70;;;;;;;2.48;88.28;101712.56;5063974;28;20029;-70
2022/03/02 07:17:00;;;;;;;54.97;7.40;;;;;;;2.65;88.60;101704.75;5045917;28;20021;-70
2022/03/02 07:19:27;;;;;;;58.33;6.85;;;;;;;2.82;88.58;101696.94;5064215;28;20028;-70
2022/03/02 07:21:54;;;;;;;71.95;7.40;;;;;;;2.93;88.08;101707.66;5063797;28;20029;-70
2022/03/02 07:24:22;;;;;;;37.50;6.43;;;;;;;3.10;88.21;101713.53;5063854;28;20024;-69
2022/03/02 07:26:57;;;;;;;76.30;9.85;;;;;;;3.26;87.97;101714.22;5063829;28;20067;-69
2022/03/02 07:29:26;;;;;;;73.55;8.70;;;;;;;3.29;88.03;101698.97;5063947;28;20032;-69
2022/03/02 07:31:56;;;;;;;47.63;6.00;;;;;;;3.35;88.11;101699.22;5063978;28;20032;-69
2022/03/02 07:34:24;;;;;;;55.80;7.97;;;;;;;3.46;88.09;101697.09;5063288;28;20472;-70
2022/03/02 07:36:50;;;;;;;54.65;8.07;;;;;;;3.45;88.02;101683.38;5063617;28;20055;-70
2022/03/02 07:39:16;;;;;;;59.35;7.20;;;;;;;3.48;88.03;101680.06;5063939;28;20127;-69
2022/03/02 07:41:42;;;;;;;63.60;7.55;;;;;;;3.56;88.05;101672.69;5063207;28;20029;-72
2022/03/02 07:44:08;;;;;;;31.02;4.57;;;;;;;3.81;87.78;101687.41;5063311;28;20032;-71
2022/03/02 07:46:33;;;;;;;41.50;4.95;;;;;;;3.93;87.94;101689.56;5063391;28;20134;-72
2022/03/02 07:48:59;;;;;;;38.80;5.03;;;;;;;4.12;87.30;101690.28;5045365;28;20024;-69
2022/03/02 07:51:26;;;;;;;55.72;6.65;;;;;;;4.08;87.27;101704.72;5063330;28;20029;-70
2022/03/02 07:54:04;;;;;;;79.30;7.38;;;;;;;4.04;87.05;101699.41;5045372;28;20050;-71
2022/03/02 07:56:31;;;;;;;63.50;7.55;;;;;;;4.03;87.41;101698.53;5063242;28;20025;-71
2022/03/02 07:59:05;;;;;;;45.65;6.85;;;;;;;4.07;87.37;101696.97;5062801;28;20035;-71
2022/03/02 08:01:34;;;;;;;59.22;8.18;;;;;;;4.25;87.67;101701.06;5063268;28;20016;-71
2022/03/02 08:04:04;;;;;;;64.15;9.02;;;;;;;4.33;87.79;101704.78;5062871;28;20087;-70
2022/03/02 08:06:31;;;;;;;64.72;7.80;;;;;;;4.40;87.31;101699.06;5063272;28;20020;-71
2022/03/02 08:08:56;;;;;;;46.08;5.72;;;;;;;4.50;87.20;101705.44;5044902;28;20162;-71
2022/03/02 08:11:22;;;;;;;47.72;7.63;;;;;;;4.41;87.17;101671.69;5062996;28;20025;-70
2022/03/02 08:13:47;;;;;;;62.00;8.35;;;;;;;4.59;87.12;101700.66;5062528;28;20031;-71
2022/03/02 08:16:15;;;;;;;71.30;7.72;;;;;;;4.59;86.86;101702.34;5044755;28;20504;-70
2022/03/02 08:18:40;;;;;;;81.63;10.88;;;;;;;4.63;87.34;101687.91;5062935;28;20043;-70
2022/03/02 08:21:09;;;;;;;36.72;7.13;;;;;;;4.75;87.44;101672.03;5062942;28;20064;-70
2022/03/02 08:23:39;;;;;;;31.02;5.88;;;;;;;5.15;87.35;101690.56;5063219;28;20029;-69
2022/03/02 08:26:05;;;;;;;25.38;5.28;;;;;;;5.36;87.19;101677.56;5062852;28;20043;-69
2022/03/02 08:28:35;;;;;;;19.42;6.60;;;;;;;5.43;86.86;101674.38;5062375;28;20044;-70
2022/03/02 08:31:00;;;;;;;40.67;6.25;;;;;;;5.60;86.79;101666.34;5062725;28;20075;-69
2022/03/02 08:33:27;;;;;;;14.82;5.43;;;;;;;5.90;86.20;101674.97;5044573;28;20021;-69
2022/03/02 08:35:54;;;;;;;27.63;5.93;;;;;;;6.10;85.59;101680.81;5062465;28;20051;-69
2022/03/02 08:38:21;;;;;;;22.70;5.75;;;;;;;6.01;84.81;101681.34;5062733;28;20075;-69
2022/03/02 08:40:47;;;;;;;19.55;6.38;;;;;;;6.03;84.59;101687.44;5062804;28;20025;-69
2022/03/02 08:43:16;;;;;;;15.00;7.13;;;;;;;6.06;84.37;101681.53;5044155;28;20044;-69
2022/03/02 08:45:50;;;;;;;21.35;5.20;;;;;;;6.21;84.16;101686.28;5062973;28;20021;-69
2022/03/02 08:48:16;;;;;;;9.95;3.95;;;;;;;6.47;84.41;101685.31;5066823;28;20025;-69
2022/03/02 08:50:42;;;;;;;14.23;5.40;;;;;;;6.64;84.33;101680.63;5066638;28;20027;-70
2022/03/02 08:53:11;;;;;;;19.48;5.40;;;;;;;7.02;83.65;101688.56;5048421;28;20080;-71
2022/03/02 08:55:36;;;;;;;13.57;4.88;;;;;;;7.29;83.48;101684.09;5066557;28;20017;-71
2022/03/02 08:58:02;;;;;;;17.67;4.88;;;;;;;7.37;82.65;101694.63;5066178;28;20089;-70
2022/03/02 09:00:28;;;;;;;14.27;4.05;;;;;;;7.28;82.23;101695.28;5066702;28;20037;-70
2022/03/02 09:02:53;;;;;;;12.18;4.32;;;;;;;7.35;82.49;101697.16;5066414;28;20025;-69
2022/03/02 09:05:19;;;;;;;14.40;5.32;;;;;;;7.52;82.41;101684.69;5066287;28;20074;-70
2022/03/02 09:07:45;;;;;;;13.10;5.20;;;;;;;7.90;81.11;101699.38;5066520;28;20400;-71
2022/03/02 09:10:12;;;;;;;14.13;4.55;;;;;;;7.99;80.62;101697.81;5064816;28;20080;-69
2022/03/02 09:12:41;;;;;;;13.05;4.13;;;;;;;7.99;80.42;101695.25;5065698;28;20032;-68
2022/03/02 09:15:07;;;;;;;19.52;4.50;;;;;;;7.88;80.00;101702.75;5066445;28;20510;-68
2022/03/02 09:17:33;;;;;;;15.95;4.63;;;;;;;7.67;80.23;101696.22;5066296;28;20040;-68
2022/03/02 09:19:58;;;;;;;22.10;5.03;;;;;;;7.74;80.19;101694.66;5066333;28;20096;-68
2022/03/02 09:22:26;;;;;;;17.15;4.53;;;;;;;7.65;79.75;101692.75;5066564;28;20369;-69
2022/03/02 09:24:52;;;;;;;21.40;4.38;;;;;;;7.51;79.50;101700.13;5066043;28;20159;-70
2022/03/02 09:27:20;;;;;;;22.13;4.78;;;;;;;7.60;79.61;101700.38;5065655;28;20032;-70
2022/03/02 09:29:47;;;;;;;17.40;4.13;;;;;;;7.56;79.55;101690.78;5066220;28;20058;-71
2022/03/02 09:32:14;;;;;;;14.05;4.50;;;;;;;7.38;78.74;101689.50;5047996;28;20031;-71
2022/03/02 09:34:45;;;;;;;18.80;5.25;;;;;;;7.25;79.24;101687.44;5064308;28;20030;-70
2022/03/02 09:37:13;;;;;;;19.67;4.63;;;;;;;7.31;80.05;101682.44;5065839;28;20049;-71
2022/03/02 09:39:39;;;;;;;22.35;5.63;;;;;;;7.52;79.61;101671.78;5066073;28;20378;-72
2022/03/02 09:42:15;;;;;;;17.30;4.50;;;;;;;7.75;80.00;101675.72;5065311;28;20028;-74
2022/03/02 09:44:44;;;;;;;17.63;4.72;;;;;;;7.94;79.73;101674.44;5047669;28;20020;-74
2022/03/02 09:47:16;;;;;;;19.33;4.85;;;;;;;7.87;76.52;101678.63;5065785;28;20047;-74
2022/03/02 09:49:46;;;;;;;;;;;;;;;7.56;76.04;101675.28;5065997;28;20025;-73
2022/03/02 09:52:12;;;;;;;19.98;5.18;;;;;;;7.19;76.04;101675.22;5065513;28;19909;-74
2022/03/02 09:54:38;;;;;;;14.57;5.60;;;;;;;7.02;76.68;101674.78;5047371;28;20025;-75
2022/03/02 09:57:06;;;;;;;22.52;6.18;;;;;;;7.02;76.71;101667.03;5064777;28;20070;-74
2022/03/02 09:59:38;;;;;;;22.80;6.25;;;;;;;6.92;76.18;101666.78;5065451;28;20055;-74
2022/03/02 10:02:06;;;;;;;17.00;5.25;;;;;;;6.76;76.10;101682.69;5047176;28;20032;-75
2022/03/02 10:04:34;;;;;;;21.77;5.78;;;;;;;6.66;76.56;101677.25;5065170;28;20040;-75
2022/03/02 10:07:46;;;;;;;17.88;4.90;;;;;;;6.99;77.95;101685.03;5065144;28;20031;-75
2022/03/02 10:09:51;;;;;;;23.90;6.53;;;;;;;7.82;79.07;101682.81;5057618;28;20099;-75
2022/03/02 10:12:19;;;;;;;22.48;4.78;;;;;;;8.66;78.67;101663.94;5030946;28;20025;-75
2022/03/02 10:14:45;;;;;;;15.77;3.63;;;;;;;9.54;77.85;101649.94;5047376;28;20451;-75
2022/03/02 10:17:11;;;;;;;10.02;3.25;;;;;;;10.26;74.57;101648.34;5065151;28;20032;-77
2022/03/02 10:19:45;;;;;;;23.33;8.25;;;;;;;11.13;72.81;101674.47;5065274;28;20113;-77
2022/03/02 10:22:22;;;;;;;19.45;4.97;;;;;;;11.82;69.98;101665.47;5065208;28;20021;-74
2022/03/02 10:24:49;;;;;;;16.20;4.32;;;;;;;12.20;67.86;101673.56;5065043;28;20530;-76
2022/03/02 10:27:39;;;;;;;16.30;3.88;;;;;;;12.94;67.27;101664.25;5064798;28;20021;-76
2022/03/02 10:30:07;;;;;;;9.27;2.45;;;;;;;13.54;61.92;101658.25;5046836;28;20016;-74
2022/03/02 10:32:37;;;;;;;19.45;3.47;;;;;;;13.29;61.07;101642.53;5046998;28;20041;-74
2022/03/02 10:35:08;;;;;;;12.50;3.15;;;;;;;13.08;60.89;101659.06;5064813;28;20039;-75
2022/03/02 10:38:03;;;;;;;13.20;3.50;;;;;;;12.64;60.39;101636.41;5046765;28;20536;-73
2022/03/02 10:40:32;;;;;;;10.02;3.85;;;;;;;12.51;60.62;101660.66;5046881;28;20028;-74
2022/03/02 10:43:05;;;;;;;10.20;3.70;;;;;;;12.38;60.07;101667.56;5064420;28;20055;-72
2022/03/02 10:45:42;;;;;;;12.75;3.33;;;;;;;12.02;59.71;101670.81;5046713;28;20053;-73
2022/03/02 10:48:14;;;;;;;16.98;3.40;;;;;;;11.98;59.84;101668.19;5064774;28;20472;-74
2022/03/02 10:50:42;;;;;;;16.73;3.67;;;;;;;12.49;58.88;101678.03;5064672;28;20466;-74
2022/03/02 10:53:13;;;;;;;12.30;3.20;;;;;;;12.84;57.14;101664.22;5046635;28;20047;-73
2022/03/02 10:55:42;;;;;;;11.90;2.75;;;;;;;12.78;56.88;101659.00;5064516;28;20048;-74
2022/03/02 10:58:09;;;;;;;17.48;3.63;;;;;;;12.49;55.94;101662.41;5064069;28;20056;-73
2022/03/02 11:00:35;;;;;;;14.88;3.25;;;;;;;12.09;56.18;101647.47;5046327;28;20047;-73
2022/03/02 11:03:01;;;;;;;17.55;3.15;;;;;;;11.91;55.74;101656.88;5064414;28;20025;-72
2022/03/02 11:05:29;;;;;;;10.18;2.95;;;;;;;11.33;55.96;101655.56;5063975;28;20047;-73
2022/03/02 11:07:56;;;;;;;14.82;2.92;;;;;;;10.89;56.82;101657.78;5064168;28;20162;-73
2022/03/02 11:10:32;;;;;;;11.13;2.60;;;;;;;10.89;58.42;101657.78;5063717;28;20024;-73
2022/03/02 11:12:59;;;;;;;13.95;3.67;;;;;;;11.81;56.57;101655.94;5063916;28;20104;-73
2022/03/02 11:15:25;;;;;;;15.57;3.00;;;;;;;11.59;54.43;101627.19;5064052;28;20230;-74
2022/03/02 11:17:56;;;;;;;12.98;3.22;;;;;;;11.07;55.89;101635.44;5046354;28;20021;-72